CheckWX is a tool to help pilots better visualize weather data.  It is not intended as a substitute for an official pre-flight weather briefing.

03:45:51 UTC

KJCT METAR
Kimble County Airport
Junction, Texas, USA
Current

55 mins ago

KJCT 210251Z AUTO 01010KT 10SM CLR 06/02 A3061 RMK AO2 SLP354 T00610017 53033 $
Observed
Feb-21 @ 02:51 UTC
Wind
  • 010° at 10 KTS
Visibility
10 SM
Flight Rules
VFR
Cloud Levels
  • Clear skies
Temperature
C / 43°F
Dewpoint
C / 36°F
Humidity
76%
Altimeter
30.61" Hg
Pressure
1036.62 hPa
Previous

2 hours ago

KJCT 210151Z AUTO 34005KT 10SM CLR 06/02 A3056 RMK AO2 SLP339 T00610017 $
Observed
Feb-21 @ 01:51 UTC
Wind
  • 340° at 5 KTS
Visibility
10 SM
Flight Rules
VFR
Cloud Levels
  • Clear skies
Temperature
C / 43°F
Dewpoint
C / 36°F
Humidity
76%
Altimeter
30.56" Hg
Pressure
1034.92 hPa
Previous

3 hours ago

KJCT 210051Z AUTO 02008KT 10SM CLR 08/02 A3054 RMK AO2 SLP329 T00780017 $
Observed
Feb-21 @ 00:51 UTC
Wind
  • 020° at 8 KTS
Visibility
10 SM
Flight Rules
VFR
Cloud Levels
  • Clear skies
Temperature
C / 46°F
Dewpoint
C / 36°F
Humidity
66%
Altimeter
30.54" Hg
Pressure
1034.22 hPa